createdAt,value
2023-05-14T00:02:23.841Z,11.15
2023-05-14T00:05:16.778Z,10.95
2023-05-14T00:08:08.750Z,10.96
2023-05-14T00:10:53.589Z,10.82
2023-05-14T00:13:44.759Z,10.96
2023-05-14T00:16:35.872Z,10.78
2023-05-14T00:19:27.760Z,10.62
2023-05-14T00:22:12.780Z,10.71
2023-05-14T00:25:03.773Z,10.76
2023-05-14T00:27:54.761Z,10.64
2023-05-14T00:30:39.902Z,10.61
2023-05-14T00:33:30.759Z,10.66
2023-05-14T00:36:16.174Z,10.69
2023-05-14T00:39:07.770Z,10.77
2023-05-14T00:41:58.885Z,10.61
2023-05-14T00:44:50.772Z,10.29
2023-05-14T00:47:42.831Z,10.23
2023-05-14T00:50:27.830Z,10.25
2023-05-14T00:53:19.782Z,10.25
2023-05-14T00:56:05.280Z,10.36
2023-05-14T00:58:56.776Z,10.47
2023-05-14T01:01:42.121Z,10.44
2023-05-14T01:04:33.790Z,10.23
2023-05-14T01:07:37.288Z,10.34
2023-05-14T01:10:41.787Z,10.24
2023-05-14T01:13:46.612Z,10.19
2023-05-14T01:16:39.799Z,10.12
2023-05-14T01:19:43.694Z,10.17
2023-05-14T01:22:34.790Z,10.00
2023-05-14T01:25:26.768Z,9.98
2023-05-14T01:28:25.799Z,9.96
2023-05-14T01:31:24.783Z,10.05
2023-05-14T01:34:12.516Z,10.04
2023-05-14T01:37:04.781Z,10.04
2023-05-14T01:39:57.200Z,10.07
2023-05-14T01:42:49.849Z,9.91
2023-05-14T01:45:36.316Z,9.89
2023-05-14T01:48:27.795Z,9.75
2023-05-14T01:51:14.548Z,9.74
2023-05-14T01:54:05.801Z,9.67
2023-05-14T01:56:51.520Z,9.68
2023-05-14T01:59:42.801Z,9.63
2023-05-14T02:02:27.619Z,9.64
2023-05-14T02:05:19.780Z,9.61
2023-05-14T02:08:04.826Z,9.61
2023-05-14T02:10:56.790Z,9.59
2023-05-14T02:13:41.943Z,9.51
2023-05-14T02:16:33.889Z,9.51
2023-05-14T02:19:18.823Z,9.49
2023-05-14T02:22:09.794Z,9.48
2023-05-14T02:24:55.064Z,9.49
2023-05-14T02:27:46.800Z,9.40
2023-05-14T02:30:38.812Z,9.21
2023-05-14T02:33:23.834Z,9.22
2023-05-14T02:36:15.818Z,9.22
2023-05-14T02:39:07.025Z,9.18
2023-05-14T02:41:58.796Z,9.25
2023-05-14T02:44:44.089Z,9.19
2023-05-14T02:47:37.490Z,9.15
2023-05-14T02:50:23.367Z,9.10
2023-05-14T02:53:14.810Z,9.15
2023-05-14T02:55:59.831Z,9.03
2023-05-14T02:58:50.814Z,9.00
2023-05-14T03:01:35.627Z,9.05
2023-05-14T03:04:27.821Z,9.05
2023-05-14T03:07:19.802Z,8.86
2023-05-14T03:10:05.764Z,8.88
2023-05-14T03:12:57.819Z,8.94
2023-05-14T03:15:42.993Z,8.91
2023-05-14T03:18:36.934Z,8.88
2023-05-14T03:21:22.040Z,8.86
2023-05-14T03:24:13.840Z,8.85
2023-05-14T03:26:58.718Z,9.06
2023-05-14T03:29:50.816Z,8.95
2023-05-14T03:32:37.281Z,8.89
2023-05-14T03:35:28.805Z,8.91
2023-05-14T03:38:33.823Z,8.94
2023-05-14T03:41:26.805Z,8.98
2023-05-14T03:44:11.954Z,8.84
2023-05-14T03:47:03.853Z,8.80
2023-05-14T03:49:49.898Z,8.61
2023-05-14T03:52:40.850Z,8.76
2023-05-14T03:55:25.661Z,8.83
2023-05-14T03:58:20.831Z,8.95
2023-05-14T04:01:12.818Z,9.03
2023-05-14T04:04:03.930Z,8.95
2023-05-14T04:06:55.822Z,8.93
2023-05-14T04:09:40.601Z,8.80
2023-05-14T04:12:32.823Z,8.64
2023-05-14T04:15:17.818Z,8.65
2023-05-14T04:18:08.848Z,8.64
2023-05-14T04:20:53.742Z,8.80
2023-05-14T04:23:44.833Z,8.80
2023-05-14T04:26:29.677Z,9.01
2023-05-14T04:29:20.855Z,8.88
2023-05-14T04:32:06.598Z,8.94
2023-05-14T04:34:57.820Z,8.99
2023-05-14T04:37:56.876Z,9.05
2023-05-14T04:40:55.813Z,9.16
2023-05-14T04:43:46.846Z,9.25
2023-05-14T04:46:37.839Z,9.34
2023-05-14T04:49:22.649Z,9.18
2023-05-14T04:52:14.839Z,9.16
2023-05-14T04:54:59.521Z,9.20
2023-05-14T04:57:50.822Z,9.26
2023-05-14T05:00:35.743Z,9.32
2023-05-14T05:03:26.973Z,9.46
2023-05-14T05:06:18.845Z,9.53
2023-05-14T05:09:10.864Z,9.58
2023-05-14T05:11:56.210Z,9.69
2023-05-14T05:14:47.858Z,9.67
2023-05-14T05:17:32.769Z,9.74
2023-05-14T05:20:24.998Z,9.84
2023-05-14T05:23:10.183Z,9.99
2023-05-14T05:26:01.830Z,10.01
2023-05-14T05:28:46.992Z,10.19
2023-05-14T05:31:38.885Z,10.25
2023-05-14T05:34:29.873Z,10.38
2023-05-14T05:37:14.845Z,10.35
2023-05-14T05:40:12.847Z,10.41
2023-05-14T05:42:57.905Z,10.46
2023-05-14T05:45:48.840Z,10.56
2023-05-14T05:48:33.778Z,10.65
2023-05-14T05:51:24.849Z,10.76
2023-05-14T05:54:09.775Z,10.61
2023-05-14T05:57:00.861Z,10.76
2023-05-14T05:59:46.138Z,11.06
2023-05-14T06:02:38.004Z,11.20
2023-05-14T06:05:22.819Z,11.53
2023-05-14T06:08:14.877Z,11.58
2023-05-14T06:10:59.629Z,11.81
2023-05-14T06:13:50.878Z,12.21
2023-05-14T06:16:35.799Z,12.22
2023-05-14T06:19:26.847Z,12.36
2023-05-14T06:22:11.889Z,12.48
2023-05-14T06:25:02.881Z,12.25
2023-05-14T06:27:47.879Z,12.40
2023-05-14T06:30:38.844Z,12.39
2023-05-14T06:33:30.533Z,12.51
2023-05-14T06:36:21.862Z,12.57
2023-05-14T06:39:13.986Z,12.58
2023-05-14T06:42:13.852Z,12.69
2023-05-14T06:45:04.844Z,12.85
2023-05-14T06:47:49.697Z,12.90
2023-05-14T06:50:40.898Z,12.92
2023-05-14T06:53:25.680Z,13.03
2023-05-14T06:56:16.854Z,13.07
2023-05-14T06:59:02.210Z,13.28
2023-05-14T07:01:53.924Z,13.37
2023-05-14T07:04:38.884Z,13.54
2023-05-14T07:07:29.887Z,13.65
2023-05-14T07:10:14.930Z,13.81
2023-05-14T07:13:06.904Z,13.95
2023-05-14T07:15:51.785Z,13.82
2023-05-14T07:18:42.906Z,13.89
2023-05-14T07:21:27.917Z,14.10
2023-05-14T07:24:19.876Z,14.36
2023-05-14T07:27:05.128Z,14.36
2023-05-14T07:29:56.908Z,14.49
2023-05-14T07:32:42.273Z,14.54
2023-05-14T07:35:33.870Z,14.81
2023-05-14T07:38:25.889Z,14.94
2023-05-14T07:41:18.053Z,16.53
2023-05-14T07:44:09.877Z,18.81
2023-05-14T07:46:54.731Z,21.55
2023-05-14T07:49:45.873Z,21.50
2023-05-14T07:52:37.886Z,22.66
2023-05-14T07:55:29.872Z,21.92
2023-05-14T07:58:16.009Z,21.49
2023-05-14T08:01:08.895Z,22.27
2023-05-14T08:03:53.710Z,21.09
2023-05-14T08:06:44.921Z,22.02
2023-05-14T08:09:29.925Z,21.38
2023-05-14T08:12:22.905Z,21.98
2023-05-14T08:15:08.242Z,22.97
2023-05-14T08:17:59.942Z,23.02
2023-05-14T08:20:45.111Z,23.44
2023-05-14T08:23:36.911Z,24.13
2023-05-14T08:26:21.821Z,23.60
2023-05-14T08:29:14.689Z,22.22
2023-05-14T08:32:08.428Z,24.33
2023-05-14T08:35:02.944Z,25.01
2023-05-14T08:37:47.932Z,25.74
2023-05-14T08:40:45.958Z,26.02
2023-05-14T08:43:51.922Z,23.90
2023-05-14T08:46:38.561Z,22.71
2023-05-14T08:49:48.921Z,22.92
2023-05-14T08:52:34.614Z,24.95
2023-05-14T08:55:25.909Z,25.14
2023-05-14T08:58:11.147Z,24.79
2023-05-14T09:01:02.913Z,23.33
2023-05-14T09:03:48.463Z,25.80
2023-05-14T09:06:39.919Z,22.54
2023-05-14T09:09:26.392Z,22.60
2023-05-14T09:12:17.917Z,25.07
2023-05-14T09:15:03.325Z,24.66
2023-05-14T09:17:54.966Z,25.96
2023-05-14T09:20:39.709Z,25.67
2023-05-14T09:23:40.929Z,25.43
2023-05-14T09:26:26.807Z,24.06
2023-05-14T09:29:17.941Z,25.98
2023-05-14T09:32:05.344Z,24.60
2023-05-14T09:34:56.932Z,24.11
2023-05-14T09:37:43.646Z,23.51
2023-05-14T09:40:41.955Z,25.55
2023-05-14T09:43:33.958Z,25.20
2023-05-14T09:46:18.770Z,25.05
2023-05-14T09:49:09.959Z,24.52
2023-05-14T09:51:56.917Z,24.55
2023-05-14T09:54:48.951Z,25.40
2023-05-14T09:57:40.943Z,25.16
2023-05-14T10:00:32.939Z,25.09
2023-05-14T10:03:20.268Z,24.84
2023-05-14T10:06:12.938Z,26.23
2023-05-14T10:09:04.019Z,25.59
2023-05-14T10:11:59.959Z,25.53
2023-05-14T10:14:53.136Z,25.45
2023-05-14T10:17:50.037Z,26.83
2023-05-14T10:20:37.986Z,26.61
2023-05-14T10:23:29.964Z,26.59
2023-05-14T10:26:15.698Z,27.20
2023-05-14T10:29:07.969Z,27.66
2023-05-14T10:31:55.212Z,27.38
2023-05-14T10:34:49.968Z,25.31
2023-05-14T10:37:34.881Z,24.48
2023-05-14T10:40:32.975Z,24.16
2023-05-14T10:43:19.212Z,24.14
2023-05-14T10:46:11.006Z,26.86
2023-05-14T10:49:02.969Z,23.67
2023-05-14T10:51:55.967Z,25.54
2023-05-14T10:54:54.978Z,26.00
2023-05-14T10:57:48.967Z,27.37
2023-05-14T11:00:35.467Z,28.25
2023-05-14T11:03:28.029Z,27.45
2023-05-14T11:06:14.976Z,27.89
2023-05-14T11:09:07.993Z,26.91
2023-05-14T11:11:53.036Z,24.50
2023-05-14T11:14:44.992Z,21.08
2023-05-14T11:17:31.529Z,22.10
2023-05-14T11:20:24.253Z,22.58
2023-05-14T11:23:09.540Z,21.83
2023-05-14T11:26:03.077Z,21.56
2023-05-14T11:28:48.076Z,20.73
2023-05-14T11:31:40.035Z,21.43
2023-05-14T11:34:32.034Z,21.53
2023-05-14T11:37:17.288Z,21.67
2023-05-14T11:40:16.002Z,21.94
2023-05-14T11:43:00.849Z,21.62
2023-05-14T11:46:00.063Z,21.94
2023-05-14T11:48:45.480Z,22.18
2023-05-14T11:51:36.994Z,22.22
2023-05-14T11:54:29.000Z,21.93
2023-05-14T11:57:17.844Z,22.02
2023-05-14T12:00:11.013Z,21.75
2023-05-14T12:02:56.218Z,21.45
2023-05-14T12:06:01.027Z,20.93
2023-05-14T12:08:48.191Z,20.52
2023-05-14T12:11:42.037Z,20.02
2023-05-14T12:14:33.010Z,20.18
2023-05-14T12:17:22.528Z,20.27
2023-05-14T12:20:19.019Z,20.29
2023-05-14T12:23:04.153Z,20.42
2023-05-14T12:25:57.025Z,20.34
2023-05-14T12:28:50.007Z,20.35
2023-05-14T12:31:43.085Z,20.80
2023-05-14T12:34:28.085Z,20.46
2023-05-14T12:37:20.050Z,20.67
2023-05-14T12:40:18.036Z,20.59
2023-05-14T12:43:02.867Z,21.13
2023-05-14T12:45:54.020Z,21.09
2023-05-14T12:48:39.202Z,20.98
2023-05-14T12:51:30.047Z,21.23
2023-05-14T12:54:15.871Z,20.94
2023-05-14T12:57:07.040Z,21.07
2023-05-14T12:59:51.945Z,21.35
2023-05-14T13:02:44.015Z,21.31
2023-05-14T13:05:29.417Z,20.72
2023-05-14T13:08:24.017Z,20.42
2023-05-14T13:11:08.794Z,20.01
2023-05-14T13:14:00.037Z,19.92
2023-05-14T13:16:51.059Z,19.89
2023-05-14T13:19:36.244Z,19.98
2023-05-14T13:22:27.018Z,20.10
2023-05-14T13:25:12.072Z,20.26
2023-05-14T13:28:04.044Z,20.26
2023-05-14T13:31:10.311Z,20.50
2023-05-14T13:34:02.031Z,20.55
2023-05-14T13:36:47.859Z,20.93
2023-05-14T13:39:54.045Z,21.46
2023-05-14T13:42:52.062Z,21.54
2023-05-14T13:45:37.115Z,21.35
2023-05-14T13:48:28.044Z,21.78
2023-05-14T13:51:13.038Z,21.43
2023-05-14T13:54:04.037Z,21.50
2023-05-14T13:56:49.117Z,21.36
2023-05-14T13:59:41.053Z,21.24
2023-05-14T14:02:33.567Z,21.03
2023-05-14T14:05:26.238Z,20.89
2023-05-14T14:08:22.585Z,20.87
2023-05-14T14:11:15.057Z,20.69
2023-05-14T14:14:00.285Z,20.83
2023-05-14T14:16:52.089Z,20.88
2023-05-14T14:19:43.050Z,20.76
2023-05-14T14:22:29.113Z,20.86
2023-05-14T14:25:21.138Z,21.35
2023-05-14T14:28:13.081Z,21.68
2023-05-14T14:30:57.952Z,21.69
2023-05-14T14:33:49.062Z,22.15
2023-05-14T14:36:33.897Z,22.01
2023-05-14T14:39:25.063Z,22.30
2023-05-14T14:42:17.076Z,22.22
2023-05-14T14:45:02.184Z,22.18
2023-05-14T14:47:53.134Z,21.93
2023-05-14T14:50:38.212Z,21.44
2023-05-14T14:53:31.077Z,21.38
2023-05-14T14:56:15.870Z,21.35
2023-05-14T14:59:08.063Z,21.68
2023-05-14T15:01:53.123Z,21.74
2023-05-14T15:04:45.083Z,21.94
2023-05-14T15:07:39.085Z,22.03
2023-05-14T15:10:30.080Z,21.64
2023-05-14T15:13:14.954Z,21.56
2023-05-14T15:16:06.147Z,21.19
2023-05-14T15:18:51.066Z,21.06
2023-05-14T15:21:43.094Z,20.98
2023-05-14T15:24:27.916Z,21.10
2023-05-14T15:27:19.119Z,21.12
2023-05-14T15:30:11.091Z,20.97
2023-05-14T15:32:56.176Z,21.07
2023-05-14T15:35:48.110Z,21.15
2023-05-14T15:38:33.393Z,21.33
2023-05-14T15:41:32.097Z,21.04
2023-05-14T15:44:23.098Z,21.33
2023-05-14T15:47:14.099Z,21.63
2023-05-14T15:49:59.871Z,21.48
2023-05-14T15:52:52.116Z,21.47
2023-05-14T15:55:37.292Z,21.22
2023-05-14T15:58:29.081Z,20.95
2023-05-14T16:01:14.084Z,21.03
2023-05-14T16:04:05.199Z,20.77
2023-05-14T16:06:51.060Z,20.74
2023-05-14T16:09:43.101Z,20.63
2023-05-14T16:12:28.415Z,20.49
2023-05-14T16:15:20.104Z,20.54
2023-05-14T16:18:05.402Z,20.50
2023-05-14T16:20:57.119Z,20.48
2023-05-14T16:23:49.114Z,20.43
2023-05-14T16:26:34.398Z,20.34
2023-05-14T16:29:26.110Z,20.28
2023-05-14T16:32:11.197Z,20.49
2023-05-14T16:35:03.242Z,20.35
2023-05-14T16:37:48.617Z,20.46
2023-05-14T16:40:47.108Z,20.46
2023-05-14T16:43:38.113Z,20.42
2023-05-14T16:46:23.126Z,20.25
2023-05-14T16:49:15.118Z,20.55
2023-05-14T16:51:59.819Z,20.64
2023-05-14T16:54:51.099Z,20.65
2023-05-14T16:57:43.166Z,20.56
2023-05-14T17:00:35.117Z,20.43
2023-05-14T17:03:20.150Z,20.41
2023-05-14T17:06:12.129Z,20.49
2023-05-14T17:08:56.898Z,20.25
2023-05-14T17:11:48.128Z,20.27
2023-05-14T17:14:33.331Z,20.34
2023-05-14T17:17:25.153Z,20.18
2023-05-14T17:20:11.089Z,20.18
2023-05-14T17:23:02.099Z,20.09
2023-05-14T17:25:47.003Z,20.05
2023-05-14T17:28:39.117Z,19.97
2023-05-14T17:31:24.313Z,19.85
2023-05-14T17:34:16.110Z,19.58
2023-05-14T17:37:08.123Z,19.58
2023-05-14T17:39:59.197Z,19.60
2023-05-14T17:42:45.340Z,19.56
2023-05-14T17:45:52.663Z,19.49
2023-05-14T17:48:38.549Z,19.38
2023-05-14T17:51:30.146Z,19.42
2023-05-14T17:54:21.138Z,19.35
2023-05-14T17:57:13.156Z,19.33
2023-05-14T18:00:04.134Z,19.15
2023-05-14T18:02:55.257Z,19.12
2023-05-14T18:05:40.205Z,19.06
2023-05-14T18:08:32.152Z,19.00
2023-05-14T18:11:17.112Z,19.00
2023-05-14T18:14:08.161Z,18.93
2023-05-14T18:16:53.602Z,18.89
2023-05-14T18:19:47.161Z,18.91
2023-05-14T18:22:32.266Z,18.73
2023-05-14T18:25:23.422Z,18.75
2023-05-14T18:28:09.204Z,18.66
2023-05-14T18:31:00.196Z,18.53
2023-05-14T18:33:45.384Z,18.53
2023-05-14T18:36:37.189Z,18.45
2023-05-14T18:39:28.254Z,18.44
2023-05-14T18:42:27.178Z,18.33
2023-05-14T18:45:12.044Z,18.33
2023-05-14T18:48:04.321Z,18.25
2023-05-14T18:50:49.503Z,18.29
2023-05-14T18:53:41.166Z,18.35
2023-05-14T18:56:26.396Z,18.34
2023-05-14T18:59:18.169Z,18.23
2023-05-14T19:02:03.210Z,18.15
2023-05-14T19:04:54.187Z,18.12
2023-05-14T19:07:47.197Z,17.98
2023-05-14T19:10:32.014Z,18.02
2023-05-14T19:13:23.208Z,18.01
2023-05-14T19:16:08.153Z,17.97
2023-05-14T19:19:00.267Z,17.59
2023-05-14T19:21:52.204Z,17.41
2023-05-14T19:24:44.173Z,17.24
2023-05-14T19:27:29.368Z,17.11
2023-05-14T19:30:21.214Z,17.06
2023-05-14T19:33:06.298Z,16.99
2023-05-14T19:35:58.187Z,16.99
2023-05-14T19:38:43.316Z,16.92
2023-05-14T19:41:42.198Z,16.79
2023-05-14T19:44:27.233Z,16.81
2023-05-14T19:47:18.248Z,16.83
2023-05-14T19:50:10.213Z,16.86
2023-05-14T19:52:56.606Z,16.88
2023-05-14T19:55:48.200Z,16.92
2023-05-14T19:58:33.079Z,17.07
2023-05-14T20:01:25.251Z,17.26
2023-05-14T20:04:17.185Z,17.36
2023-05-14T20:07:02.728Z,17.34
2023-05-14T20:09:54.221Z,17.51
2023-05-14T20:12:39.321Z,17.56
2023-05-14T20:15:31.212Z,17.46
2023-05-14T20:18:16.137Z,17.43
2023-05-14T20:21:08.222Z,17.40
2023-05-14T20:23:53.289Z,17.35
2023-05-14T20:26:44.211Z,17.31
2023-05-14T20:29:29.553Z,17.27
2023-05-14T20:32:22.216Z,17.25
2023-05-14T20:35:07.518Z,17.11
2023-05-14T20:37:59.196Z,16.91
2023-05-14T20:41:04.237Z,16.86
2023-05-14T20:43:56.205Z,16.79
2023-05-14T20:46:41.419Z,16.81
2023-05-14T20:49:33.212Z,16.79
2023-05-14T20:52:18.743Z,16.71
2023-05-14T20:55:10.213Z,16.68
2023-05-14T20:57:55.348Z,16.69
2023-05-14T21:00:47.223Z,16.71
2023-05-14T21:03:32.355Z,16.70
2023-05-14T21:06:24.222Z,16.71
2023-05-14T21:09:10.544Z,16.66
2023-05-14T21:12:02.232Z,16.66
2023-05-14T21:14:54.232Z,16.54
2023-05-14T21:17:39.368Z,16.48
2023-05-14T21:20:30.233Z,16.35
2023-05-14T21:23:22.213Z,16.32
2023-05-14T21:26:07.210Z,16.34
2023-05-14T21:28:58.224Z,16.29
2023-05-14T21:31:43.354Z,16.19
2023-05-14T21:34:35.231Z,16.11
2023-05-14T21:37:28.222Z,15.97
2023-05-14T21:40:33.235Z,15.86
2023-05-14T21:43:25.228Z,15.75
2023-05-14T21:46:10.258Z,15.79
2023-05-14T21:49:02.298Z,15.80
2023-05-14T21:51:48.651Z,15.79
2023-05-14T21:54:40.253Z,15.79
2023-05-14T21:57:34.544Z,15.78
2023-05-14T22:00:29.231Z,15.75
2023-05-14T22:03:21.319Z,15.77
2023-05-14T22:06:13.264Z,15.78
2023-05-14T22:09:05.246Z,15.80
2023-05-14T22:11:50.166Z,15.65
2023-05-14T22:14:41.248Z,15.65
2023-05-14T22:17:27.945Z,15.55
2023-05-14T22:20:20.243Z,15.53
2023-05-14T22:23:05.315Z,15.46
2023-05-14T22:25:57.259Z,15.34
2023-05-14T22:28:50.235Z,15.37
2023-05-14T22:31:35.234Z,15.26
2023-05-14T22:34:27.229Z,15.22
2023-05-14T22:37:12.126Z,15.18
2023-05-14T22:40:04.241Z,15.11
2023-05-14T22:42:55.428Z,15.06
2023-05-14T22:45:47.257Z,15.04
2023-05-14T22:48:38.265Z,15.06
2023-05-14T22:51:29.253Z,15.02
2023-05-14T22:54:20.259Z,15.00
2023-05-14T22:57:13.254Z,14.98
2023-05-14T22:59:58.224Z,14.92
2023-05-14T23:02:49.315Z,14.90
2023-05-14T23:05:41.262Z,14.74
2023-05-14T23:08:26.225Z,14.71
2023-05-14T23:11:17.253Z,14.60
2023-05-14T23:14:08.254Z,14.61
2023-05-14T23:16:53.336Z,14.65
2023-05-14T23:19:45.267Z,14.63
2023-05-14T23:22:30.334Z,14.60
2023-05-14T23:25:21.274Z,14.59
2023-05-14T23:28:06.170Z,14.58
2023-05-14T23:30:57.263Z,14.59
2023-05-14T23:33:44.391Z,14.54
2023-05-14T23:36:38.273Z,14.44
2023-05-14T23:39:23.193Z,14.39
2023-05-14T23:42:21.280Z,14.38
2023-05-14T23:45:07.241Z,14.28
2023-05-14T23:48:00.351Z,14.26
2023-05-14T23:50:51.268Z,14.24
2023-05-14T23:53:42.257Z,14.32
2023-05-14T23:56:28.900Z,14.29
2023-05-14T23:59:20.263Z,14.20
